Time;durP1;ratioP1;P1;durP2;ratioP2;P2;SDS_P1;SDS_P2;PMS_P1;PMS_P2;Temp;Humidity;BMP_temperature;BMP_pressure;BME280_temperature;BME280_humidity;BME280_pressure;Samples;Min_cycle;Max_cycle;Signal;HPM_P1;HPM_P2
2022/06/07 00:01:33;;;;;;;21.13;9.32;;;;;;;14.87;68.92;99968.88;4958173;28;20570;-45
2022/06/07 00:04:00;;;;;;;20.38;8.70;;;;;;;14.86;68.89;99969.72;4956450;28;20046;-53
2022/06/07 00:06:28;;;;;;;24.50;10.57;;;;;;;14.85;69.45;99967.16;4956468;28;20478;-47
2022/06/07 00:08:55;;;;;;;21.35;9.85;;;;;;;14.85;69.08;99962.81;4954647;28;20058;-45
2022/06/07 00:11:22;;;;;;;18.33;10.15;;;;;;;14.85;69.20;99964.53;4967547;28;20047;-45
2022/06/07 00:13:49;;;;;;;18.95;8.43;;;;;;;14.82;69.41;99960.25;4951982;28;20109;-46
2022/06/07 00:16:16;;;;;;;18.58;9.40;;;;;;;14.81;69.22;99961.16;4963478;28;20121;-42
2022/06/07 00:18:44;;;;;;;16.73;8.00;;;;;;;14.78;69.36;99961.22;4975417;28;20047;-48
2022/06/07 00:21:10;;;;;;;19.35;8.15;;;;;;;14.78;69.41;99956.00;4965610;28;20073;-47
2022/06/07 00:23:38;;;;;;;17.83;8.45;;;;;;;14.78;69.18;99961.22;4965589;28;20054;-47
2022/06/07 00:26:04;;;;;;;20.13;8.88;;;;;;;14.77;69.46;99955.13;4961600;28;20043;-43
2022/06/07 00:28:32;;;;;;;16.95;8.18;;;;;;;14.79;69.52;99957.72;4962699;28;20062;-50
2022/06/07 00:30:59;;;;;;;17.92;9.15;;;;;;;14.77;70.22;99954.31;4963981;28;20062;-47
2022/06/07 00:33:26;;;;;;;17.23;8.02;;;;;;;14.75;69.84;99956.03;4966311;28;20065;-49
2022/06/07 00:35:53;;;;;;;18.30;7.80;;;;;;;14.74;69.91;99956.94;4963672;28;20538;-48
2022/06/07 00:38:20;;;;;;;18.23;8.85;;;;;;;14.71;69.40;99954.38;4961468;28;20047;-42
2022/06/07 00:40:47;;;;;;;16.92;8.35;;;;;;;14.70;70.22;99957.91;4966035;28;20121;-48
2022/06/07 00:43:14;;;;;;;15.30;7.25;;;;;;;14.67;69.95;99953.63;4959656;28;20055;-53
2022/06/07 00:45:40;;;;;;;17.23;9.00;;;;;;;14.68;69.35;99950.09;4964325;28;20054;-43
2022/06/07 00:48:08;;;;;;;18.20;8.00;;;;;;;14.69;70.04;99953.59;4966049;28;20042;-41
2022/06/07 00:53:21;;;;;;;17.70;7.95;;;;;;;14.65;70.15;99945.81;5007768;28;20415;-44
2022/06/07 00:55:48;;;;;;;17.80;8.07;;;;;;;14.65;69.98;99940.59;5009725;28;20104;-42
2022/06/07 00:58:15;;;;;;;16.42;8.73;;;;;;;14.65;69.91;99942.34;5006639;28;20050;-47
2022/06/07 01:00:42;;;;;;;18.00;8.27;;;;;;;14.64;69.90;99938.91;4987937;28;20050;-45
2022/06/07 01:03:08;;;;;;;18.45;9.75;;;;;;;14.63;69.85;99942.38;4987503;28;20046;-45
2022/06/07 01:05:35;;;;;;;20.63;9.65;;;;;;;14.63;69.81;99941.53;4996464;28;20054;-42
2022/06/07 01:10:52;;;;;;;21.30;9.80;;;;;;;14.60;70.06;99939.84;5008184;28;20058;-48
2022/06/07 01:13:22;;;;;;;20.88;10.23;;;;;;;14.59;69.78;99935.50;4989737;28;20054;-44
2022/06/07 01:15:49;;;;;;;;;;;;;;;14.40;69.90;99930.69;4989839;28;20509;-43
2022/06/07 01:18:16;;;;;;;22.38;9.77;;;;;;;14.55;69.72;99933.03;4990178;28;19976;-44
2022/06/07 01:20:43;;;;;;;24.25;10.70;;;;;;;14.56;70.13;99935.56;4991560;28;20053;-47
2022/06/07 01:23:10;;;;;;;21.98;9.60;;;;;;;14.56;69.72;99927.75;4987358;28;20617;-42
2022/06/07 01:25:36;;;;;;;25.23;11.13;;;;;;;14.55;70.17;99933.88;4986508;28;20594;-47
2022/06/07 01:28:03;;;;;;;27.50;11.40;;;;;;;14.55;70.35;99928.66;4993254;28;20051;-44
2022/06/07 01:30:30;;;;;;;25.58;10.50;;;;;;;14.55;69.89;99928.66;4990435;28;22225;-51
2022/06/07 01:32:57;;;;;;;22.92;10.88;;;;;;;14.54;70.08;99916.53;4993325;28;20482;-45
2022/06/07 01:35:23;;;;;;;25.67;10.98;;;;;;;14.54;70.21;99916.53;4990986;28;20552;-45
2022/06/07 01:37:50;;;;;;;25.92;11.57;;;;;;;14.53;70.37;99922.63;4981710;28;20081;-48
2022/06/07 01:43:03;;;;;;;26.00;11.13;;;;;;;14.48;70.17;99911.44;4987543;28;20054;-42
2022/06/07 01:45:30;;;;;;;22.63;9.52;;;;;;;14.46;70.67;99923.66;4988846;28;20410;-40
2022/06/07 01:47:57;;;;;;;20.25;9.70;;;;;;;14.44;70.07;99917.59;4986775;28;20050;-44
2022/06/07 01:50:23;;;;;;;22.10;9.18;;;;;;;14.43;70.03;99918.50;4993172;28;20046;-45
2022/06/07 01:52:50;;;;;;;20.67;9.13;;;;;;;14.42;70.06;99911.56;4989859;28;20050;-40
2022/06/07 01:55:16;;;;;;;23.08;10.18;;;;;;;14.38;70.52;99911.63;4980625;28;20058;-44
2022/06/07 01:57:43;;;;;;;21.13;10.30;;;;;;;14.37;70.39;99909.94;4986453;28;20053;-44
2022/06/07 02:00:14;;;;;;;23.95;10.70;;;;;;;14.35;70.64;99911.69;4990840;28;20057;-45
2022/06/07 02:02:46;;;;;;;20.33;9.52;;;;;;;14.33;69.97;99910.88;4986922;28;20479;-46
2022/06/07 02:05:15;;;;;;;24.08;11.30;;;;;;;14.33;70.93;99907.41;4974093;28;20047;-48
2022/06/07 02:07:41;;;;;;;30.27;11.52;;;;;;;14.32;70.70;99909.13;4976346;28;20053;-45
2022/06/07 02:10:09;;;;;;;24.42;10.73;;;;;;;14.30;70.52;99908.34;4973892;28;20541;-46
2022/06/07 02:12:35;;;;;;;24.63;10.60;;;;;;;14.30;70.64;99907.47;4974853;28;20058;-45
2022/06/07 02:15:03;;;;;;;25.95;11.93;;;;;;;14.28;70.70;99907.50;4980467;28;20124;-44
2022/06/07 02:17:30;;;;;;;26.92;11.90;;;;;;;14.26;71.00;99904.06;4971371;28;20063;-48
2022/06/07 02:19:57;;;;;;;25.13;11.00;;;;;;;14.24;70.47;99904.09;4970132;28;20058;-45
2022/06/07 02:22:23;;;;;;;28.55;12.90;;;;;;;14.22;70.59;99899.81;4973375;28;20430;-42
2022/06/07 02:24:50;;;;;;;28.65;12.02;;;;;;;14.21;71.10;99905.91;4978479;28;20431;-45
2022/06/07 02:27:20;;;;;;;27.08;12.95;;;;;;;14.20;70.51;99899.84;4976930;28;20059;-48
2022/06/07 02:29:51;;;;;;;28.00;11.07;;;;;;;14.17;70.54;99897.31;4982792;28;20054;-43
2022/06/07 02:32:29;;;;;;;25.23;11.07;;;;;;;14.09;70.68;99897.44;4971944;28;20051;-41
2022/06/07 02:34:59;;;;;;;26.20;11.57;;;;;;;14.09;71.24;99900.03;4987814;28;20483;-45
2022/06/07 02:37:28;;;;;;;25.83;10.50;;;;;;;14.09;71.27;99894.00;4977312;28;20050;-47
2022/06/07 02:39:56;;;;;;;26.10;10.75;;;;;;;14.08;71.25;99889.69;4969972;28;20051;-46
2022/06/07 02:42:26;;;;;;;30.90;11.60;;;;;;;14.08;71.09;99887.91;4971282;28;20044;-48
2022/06/07 02:44:53;;;;;;;26.20;11.70;;;;;;;14.07;70.81;99891.41;4977263;28;20058;-45
2022/06/07 02:47:20;;;;;;;28.77;12.77;;;;;;;14.05;70.93;99887.97;4970816;28;20283;-44
2022/06/07 02:49:47;;;;;;;30.92;11.98;;;;;;;14.04;70.28;99886.25;4969280;28;20090;-43
2022/06/07 02:52:13;;;;;;;30.55;12.98;;;;;;;14.00;70.58;99885.47;4978758;28;20046;-43
2022/06/07 02:54:40;;;;;;;27.77;11.98;;;;;;;14.00;71.17;99884.59;4975476;28;20402;-42
2022/06/07 02:57:07;;;;;;;29.60;12.10;;;;;;;13.97;71.15;99885.53;4975271;28;20050;-46
2022/06/07 02:59:33;;;;;;;32.13;13.55;;;;;;;13.96;70.97;99877.75;4978851;28;20487;-48
2022/06/07 03:02:00;;;;;;;32.15;12.20;;;;;;;13.94;70.45;99879.50;4977358;28;20047;-48
2022/06/07 03:04:27;;;;;;;26.80;11.85;;;;;;;13.92;71.31;99871.75;4966998;28;20051;-47
2022/06/07 03:06:54;;;;;;;30.58;12.88;;;;;;;13.91;70.43;99877.00;4969313;28;20058;-45
2022/06/07 03:09:20;;;;;;;31.70;12.07;;;;;;;13.86;70.72;99872.72;4976609;28;20058;-43
2022/06/07 03:11:47;;;;;;;28.80;11.73;;;;;;;13.84;70.75;99869.28;4977233;28;20047;-43
2022/06/07 03:14:14;;;;;;;27.63;11.07;;;;;;;13.80;70.32;99871.97;4972215;28;20054;-46
2022/06/07 03:16:40;;;;;;;30.55;12.77;;;;;;;13.75;70.06;99870.31;4975595;28;20050;-46
2022/06/07 03:19:07;;;;;;;27.75;11.02;;;;;;;13.72;70.49;99864.31;4971819;28;20061;-43
2022/06/07 03:21:34;;;;;;;25.92;11.20;;;;;;;13.66;71.28;99869.63;4976895;28;20046;-44
2022/06/07 03:24:01;;;;;;;31.58;11.18;;;;;;;13.60;71.05;99866.25;4975970;28;20055;-46
2022/06/07 03:26:27;;;;;;;27.95;11.55;;;;;;;13.55;70.81;99868.09;4976369;28;20046;-46
2022/06/07 03:28:54;;;;;;;27.75;11.05;;;;;;;13.50;69.95;99869.91;4969668;28;20043;-45
2022/06/07 03:31:20;;;;;;;29.38;11.27;;;;;;;13.45;71.12;99867.34;4973514;28;20065;-45
2022/06/07 03:33:48;;;;;;;25.92;11.57;;;;;;;13.40;71.42;99874.38;4965811;28;20051;-42
2022/06/07 03:36:20;;;;;;;31.67;12.02;;;;;;;13.35;70.68;99878.81;4970035;28;20375;-43
2022/06/07 03:38:47;;;;;;;27.38;11.23;;;;;;;13.29;71.12;99877.19;4978848;28;20057;-47
2022/06/07 03:41:17;;;;;;;27.15;11.85;;;;;;;13.27;71.09;99880.69;4969329;28;20054;-43
2022/06/07 03:43:44;;;;;;;29.35;11.82;;;;;;;13.24;71.36;99878.97;4968854;28;20047;-43
2022/06/07 03:46:30;;;;;;;28.65;11.25;;;;;;;13.22;70.61;99880.75;4970620;28;20046;-47
2022/06/07 03:48:56;;;;;;;29.50;11.43;;;;;;;13.21;71.67;99879.03;4975266;28;20490;-43
2022/06/07 03:51:26;;;;;;;32.70;12.38;;;;;;;13.22;71.61;99883.34;4971711;28;20051;-46
2022/06/07 03:53:53;;;;;;;31.30;11.43;;;;;;;13.24;71.43;99884.16;4975963;28;20505;-51
2022/06/07 03:56:21;;;;;;;30.05;12.57;;;;;;;13.27;70.97;99885.88;4969239;28;20054;-45
2022/06/07 03:58:49;;;;;;;30.90;11.35;;;;;;;13.29;71.37;99892.78;4967089;28;20050;-45
2022/06/07 04:01:18;;;;;;;28.52;11.13;;;;;;;13.33;70.92;99890.97;4974990;28;20058;-45
2022/06/07 04:03:47;;;;;;;29.42;12.68;;;;;;;13.35;71.45;99897.03;4977758;28;20120;-45
2022/06/07 04:06:16;;;;;;;;;;;;;;;13.21;71.56;99894.66;4977897;28;20491;-45
2022/06/07 04:08:43;;;;;;;28.25;11.65;;;;;;;13.36;71.17;99890.94;4972543;28;19926;-50
2022/06/07 04:11:11;;;;;;;27.50;11.10;;;;;;;13.40;71.47;99891.75;4971652;28;20046;-47
2022/06/07 04:13:38;;;;;;;30.23;11.75;;;;;;;13.44;71.57;99896.00;4968375;28;20051;-45
2022/06/07 04:16:06;;;;;;;28.17;11.38;;;;;;;13.46;72.10;99894.22;4967540;28;20077;-45
2022/06/07 04:18:34;;;;;;;27.70;11.52;;;;;;;13.47;70.99;99890.72;4975646;28;20049;-43
2022/06/07 04:21:01;;;;;;;29.35;11.77;;;;;;;13.50;71.67;99895.91;4969307;28;20055;-46
2022/06/07 04:23:27;;;;;;;26.48;11.00;;;;;;;13.52;71.73;99894.16;4968660;28;20058;-40
2022/06/07 04:25:54;;;;;;;29.50;11.77;;;;;;;13.56;72.21;99894.97;4973493;28;20046;-46
2022/06/07 04:28:20;;;;;;;26.58;10.50;;;;;;;13.58;72.21;99888.84;4975803;28;20426;-46
2022/06/07 04:30:49;;;;;;;27.05;12.57;;;;;;;13.62;71.82;99892.25;4974188;28;20046;-51
2022/06/07 04:33:16;;;;;;;26.13;11.50;;;;;;;13.63;71.92;99896.56;4971573;28;20557;-45
2022/06/07 04:35:43;;;;;;;26.73;11.77;;;;;;;13.67;72.26;99892.16;4972301;28;20038;-42
2022/06/07 04:38:11;;;;;;;26.02;11.10;;;;;;;13.68;71.18;99893.91;4975943;28;20054;-45
2022/06/07 04:40:40;;;;;;;22.85;10.25;;;;;;;13.70;71.99;99889.50;4975957;28;20109;-47
2022/06/07 04:43:09;;;;;;;24.52;11.52;;;;;;;13.73;71.58;99886.84;4972355;28;20053;-48
2022/06/07 04:45:37;;;;;;;23.20;10.30;;;;;;;13.78;71.96;99895.41;4970199;28;20442;-48
2022/06/07 04:48:06;;;;;;;24.20;10.98;;;;;;;13.86;71.33;99892.69;4976295;28;20062;-49
2022/06/07 04:50:34;;;;;;;26.58;10.80;;;;;;;13.93;72.09;99896.03;4985676;28;20050;-43
2022/06/07 04:53:00;;;;;;;24.80;10.82;;;;;;;14.01;71.06;99888.91;4978352;28;20047;-41
2022/06/07 04:55:27;;;;;;;24.35;10.88;;;;;;;14.08;71.17;99892.28;4978744;28;20399;-46
2022/06/07 04:57:54;;;;;;;23.33;10.07;;;;;;;14.17;70.99;99891.22;4966739;28;20131;-43
2022/06/07 05:00:21;;;;;;;22.55;10.98;;;;;;;14.25;71.42;99897.13;4972089;28;22062;-45
2022/06/07 05:02:48;;;;;;;20.33;9.88;;;;;;;14.34;70.64;99904.78;4969578;28;20043;-44
2022/06/07 05:05:16;;;;;;;25.00;10.80;;;;;;;14.42;71.29;99899.38;4978675;28;20058;-50
2022/06/07 05:07:43;;;;;;;22.92;10.52;;;;;;;14.50;70.80;99907.06;4978133;28;20051;-42
2022/06/07 05:10:13;;;;;;;23.75;10.27;;;;;;;14.58;70.81;99906.88;4976602;28;20506;-44
2022/06/07 05:12:40;;;;;;;24.05;11.30;;;;;;;14.64;71.04;99902.41;4974841;28;20055;-44
2022/06/07 05:15:08;;;;;;;24.35;10.30;;;;;;;14.70;70.24;99904.03;4969039;28;20061;-45
2022/06/07 05:17:34;;;;;;;23.95;10.27;;;;;;;14.73;69.89;99910.91;4972874;28;20058;-42
2022/06/07 05:20:02;;;;;;;25.00;10.40;;;;;;;14.77;70.43;99908.22;4973015;28;20121;-39
2022/06/07 05:22:29;;;;;;;22.02;9.77;;;;;;;14.86;70.12;99907.16;4970505;28;20042;-46
2022/06/07 05:24:55;;;;;;;24.63;10.60;;;;;;;14.92;69.79;99905.31;4968915;28;20059;-41
2022/06/07 05:27:24;;;;;;;28.58;10.27;;;;;;;14.99;70.18;99901.66;4971850;28;20057;-42
2022/06/07 05:29:54;;;;;;;26.75;11.13;;;;;;;15.09;69.87;99904.91;4973886;28;20049;-45
2022/06/07 05:32:21;;;;;;;24.05;9.88;;;;;;;15.20;69.79;99902.06;4977799;28;20075;-42
2022/06/07 05:34:48;;;;;;;26.58;10.60;;;;;;;15.30;69.75;99900.91;4962931;28;20054;-42
2022/06/07 05:37:18;;;;;;;22.00;10.30;;;;;;;15.40;69.34;99897.19;4964294;28;20051;-43
2022/06/07 05:39:46;;;;;;;23.13;10.27;;;;;;;15.48;69.29;99906.56;4974229;28;20077;-42
2022/06/07 05:42:14;;;;;;;20.90;9.85;;;;;;;15.58;69.17;99895.00;4973653;28;20116;-48
2022/06/07 05:44:41;;;;;;;22.48;10.43;;;;;;;15.65;68.94;99891.34;4975339;28;20471;-46
2022/06/07 05:47:09;;;;;;;22.73;11.05;;;;;;;15.72;68.83;99891.16;4975113;28;20057;-48
2022/06/07 05:49:36;;;;;;;22.52;9.98;;;;;;;15.79;68.53;99892.72;4966958;28;20454;-45
2022/06/07 05:52:04;;;;;;;25.83;10.90;;;;;;;15.90;68.63;99890.66;4979541;28;20058;-47
2022/06/07 05:54:32;;;;;;;26.42;10.82;;;;;;;16.04;68.88;99886.84;4979868;28;20398;-41
2022/06/07 05:56:59;;;;;;;23.80;10.25;;;;;;;16.14;68.30;99893.53;4974780;28;20050;-43
2022/06/07 05:59:25;;;;;;;22.65;10.27;;;;;;;16.28;68.05;99894.91;4971386;28;20055;-45
2022/06/07 06:01:52;;;;;;;21.45;9.65;;;;;;;16.41;67.81;99893.63;4969735;28;20050;-42
2022/06/07 06:04:20;;;;;;;22.23;9.80;;;;;;;16.56;67.57;99894.06;4972512;28;20088;-45
2022/06/07 06:06:47;;;;;;;22.77;10.55;;;;;;;16.66;67.17;99895.53;4963675;28;20055;-46
2022/06/07 06:12:00;;;;;;;20.50;9.40;;;;;;;16.93;66.48;99900.75;4972258;28;20066;-43
2022/06/07 06:14:26;;;;;;;21.65;9.57;;;;;;;17.03;66.11;99897.88;4972897;28;20051;-42
2022/06/07 06:16:54;;;;;;;20.25;9.30;;;;;;;17.08;66.02;99896.00;4969160;28;20104;-45
2022/06/07 06:19:38;;;;;;;21.55;9.68;;;;;;;17.17;65.30;99887.00;4981445;28;20216;-47
2022/06/07 06:22:05;;;;;;;20.90;10.32;;;;;;;17.32;66.09;99883.88;4975941;28;20108;-43
2022/06/07 06:24:32;;;;;;;21.60;9.30;;;;;;;17.47;65.34;99882.47;4981531;28;20050;-49
2022/06/07 06:26:58;;;;;;;19.58;10.55;;;;;;;17.65;65.29;99888.00;4972546;28;20046;-45
2022/06/07 06:29:25;;;;;;;19.05;10.52;;;;;;;17.85;64.63;99887.31;4968251;28;20961;-45
2022/06/07 06:31:53;;;;;;;17.77;9.38;;;;;;;18.07;64.32;99889.13;4969851;28;20058;-43
2022/06/07 06:34:37;;;;;;;16.95;8.57;;;;;;;18.29;64.61;99892.75;4966559;28;20220;-49
2022/06/07 06:37:04;;;;;;;17.40;8.98;;;;;;;18.42;62.95;99891.41;4961859;28;20686;-43
2022/06/07 06:39:30;;;;;;;16.92;8.38;;;;;;;18.59;63.49;99889.88;4970349;28;20066;-46
2022/06/07 06:41:57;;;;;;;17.90;8.23;;;;;;;18.74;63.24;99891.91;4979288;28;20494;-44
2022/06/07 06:44:24;;;;;;;16.13;8.73;;;;;;;18.88;62.08;99891.34;4971746;28;20112;-43
2022/06/07 06:46:50;;;;;;;14.98;8.32;;;;;;;19.07;61.78;99895.03;4974906;28;20494;-46
2022/06/07 06:49:18;;;;;;;14.50;7.35;;;;;;;19.22;61.01;99890.94;4965188;28;20050;-51
2022/06/07 06:51:47;;;;;;;15.88;8.75;;;;;;;19.40;60.89;99894.56;4971476;28;20541;-51
2022/06/07 06:54:16;;;;;;;15.65;8.90;;;;;;;19.57;60.58;99887.72;4959501;28;20047;-48
2022/06/07 06:56:43;;;;;;;12.65;7.00;;;;;;;19.80;59.94;99888.50;4968044;28;20050;-43
2022/06/07 06:59:10;;;;;;;12.95;7.18;;;;;;;20.00;59.40;99885.88;4973351;28;20438;-40
2022/06/07 07:01:38;;;;;;;12.48;7.70;;;;;;;20.23;59.06;99885.78;4972317;28;20061;-49
2022/06/07 07:04:09;;;;;;;12.25;7.25;;;;;;;20.48;58.80;99887.25;4976220;28;20050;-42
2022/06/07 07:06:37;;;;;;;12.48;7.00;;;;;;;20.66;57.36;99885.53;4961330;28;20058;-52
2022/06/07 07:09:06;;;;;;;13.77;8.07;;;;;;;20.84;57.09;99888.22;4972542;28;20113;-45
2022/06/07 07:11:38;;;;;;;11.45;6.03;;;;;;;20.92;56.59;99888.72;4960185;28;20133;-46
2022/06/07 07:14:08;;;;;;;11.05;6.28;;;;;;;21.02;56.81;99883.84;4982639;28;20058;-47
2022/06/07 07:16:39;;;;;;;13.00;6.60;;;;;;;21.24;55.89;99880.16;4966870;28;20047;-45
2022/06/07 07:19:06;;;;;;;12.45;6.32;;;;;;;21.46;56.17;99877.28;4966065;28;20087;-46
2022/06/07 07:21:37;;;;;;;11.75;7.72;;;;;;;21.72;55.09;99884.78;4965768;28;20054;-52
2022/06/07 07:24:06;;;;;;;13.52;6.88;;;;;;;21.99;55.24;99893.06;4967746;28;20551;-46
2022/06/07 07:26:35;;;;;;;13.30;7.22;;;;;;;22.23;54.77;99884.75;4969913;28;20078;-50
2022/06/07 07:29:03;;;;;;;12.10;6.53;;;;;;;22.43;53.72;99880.16;4964516;28;20058;-42
2022/06/07 07:31:32;;;;;;;13.13;6.35;;;;;;;22.66;52.89;99888.63;4971437;28;20096;-51
2022/06/07 07:34:03;;;;;;;11.48;5.88;;;;;;;22.85;51.98;99886.66;4973230;28;20051;-49
2022/06/07 07:36:31;;;;;;;12.20;6.95;;;;;;;23.04;52.54;99882.97;4973430;28;20446;-43
2022/06/07 07:38:58;;;;;;;12.40;7.10;;;;;;;23.24;51.54;99886.22;4974589;28;20054;-45
2022/06/07 07:44:02;;;;;;;11.38;6.60;;;;;;;23.44;50.54;99897.44;5064189;28;20414;-47
2022/06/07 07:46:33;;;;;;;11.25;6.20;;;;;;;23.51;48.84;99896.13;5048031;28;20302;-43
2022/06/07 07:49:01;;;;;;;10.75;6.45;;;;;;;23.64;49.74;99898.03;5052292;28;20053;-46
2022/06/07 07:51:31;;;;;;;13.48;6.85;;;;;;;23.78;48.52;99895.41;5058913;28;20053;-44
2022/06/07 07:54:00;;;;;;;12.95;6.72;;;;;;;23.88;48.51;99888.59;5047792;28;20045;-44
2022/06/07 07:56:28;;;;;;;12.25;6.78;;;;;;;23.96;48.14;99888.16;5033375;28;20615;-45
2022/06/07 07:58:57;;;;;;;11.45;6.30;;;;;;;24.08;47.27;99880.41;5039312;28;20052;-44
2022/06/07 08:01:25;;;;;;;11.05;5.97;;;;;;;24.13;47.44;99884.47;5045815;28;20057;-52
2022/06/07 08:03:54;;;;;;;11.18;6.93;;;;;;;24.25;46.72;99888.13;5045840;28;20231;-49
2022/06/07 08:06:23;;;;;;;11.05;6.35;;;;;;;24.37;47.12;99886.53;5058642;28;20049;-51
2022/06/07 08:08:53;;;;;;;11.88;6.65;;;;;;;24.52;46.94;99894.44;5051947;28;20057;-50
2022/06/07 08:11:23;;;;;;;10.52;6.00;;;;;;;24.64;46.96;99891.00;5042460;28;20509;-45
2022/06/07 08:13:50;;;;;;;11.88;6.50;;;;;;;24.79;47.14;99888.31;5056555;28;20049;-46
2022/06/07 08:16:17;;;;;;;11.55;6.10;;;;;;;24.98;46.67;99885.31;5046069;28;20058;-51
2022/06/07 08:18:45;;;;;;;11.57;5.60;;;;;;;25.07;45.99;99886.50;5055620;28;20048;-48
2022/06/07 08:21:23;;;;;;;9.40;5.97;;;;;;;25.21;45.69;99876.78;5047261;28;20556;-47
2022/06/07 08:23:50;;;;;;;11.02;5.75;;;;;;;25.38;45.49;99881.81;5054736;28;20054;-43
2022/06/07 08:26:17;;;;;;;10.52;6.07;;;;;;;25.56;45.50;99884.13;5041299;28;20048;-47
2022/06/07 08:28:45;;;;;;;12.65;6.00;;;;;;;25.71;44.82;99884.06;5046146;28;20053;-45
2022/06/07 08:31:14;;;;;;;8.98;5.43;;;;;;;25.78;44.46;99882.69;5038167;28;20420;-45
2022/06/07 08:39:14;;;;;;;10.98;6.13;;;;;;;25.96;44.14;99879.69;5028307;28;20568;-47
2022/06/07 08:41:52;;;;;;;;;;;;;;;25.88;44.14;99877.59;5056507;28;20163;-49
2022/06/07 08:47:14;;;;;;;10.10;5.88;;;;;;;26.02;43.81;99879.25;5031235;27;21494;-52
2022/06/07 08:49:41;;;;;;;11.40;6.55;;;;;;;26.09;43.29;99880.53;5018176;28;20057;-47
2022/06/07 08:52:15;;;;;;;11.77;6.68;;;;;;;26.15;43.45;99874.81;5022027;28;20046;-47
2022/06/07 08:54:43;;;;;;;10.45;6.53;;;;;;;26.29;43.25;99873.84;5017581;28;20042;-51
2022/06/07 08:57:20;;;;;;;12.32;6.13;;;;;;;26.57;44.16;99878.94;5010305;28;20649;-43
2022/06/07 08:59:52;;;;;;;10.23;5.80;;;;;;;26.93;44.87;99874.53;5016722;28;20042;-45
2022/06/07 09:02:58;;;;;;;9.68;5.53;;;;;;;27.30;43.60;99878.06;5021096;28;20049;-49
2022/06/07 09:13:20;;;;;;;11.13;6.88;;;;;;;28.06;40.56;99861.56;5087493;27;20418;-46
2022/06/07 09:15:52;;;;;;;10.85;6.45;;;;;;;27.89;40.13;99854.91;5050085;28;20048;-40
2022/06/07 09:18:23;;;;;;;11.38;7.20;;;;;;;27.52;39.60;99860.47;5081279;28;20952;-51
2022/06/07 09:20:53;;;;;;;12.07;6.60;;;;;;;27.20;40.18;99849.53;5077940;28;20431;-43
2022/06/07 09:23:49;;;;;;;12.15;5.90;;;;;;;26.88;40.45;99852.75;5079406;28;20051;-51
2022/06/07 09:26:27;;;;;;;11.75;6.47;;;;;;;26.83;41.35;99849.59;5090034;28;20060;-45
2022/06/07 09:34:29;;;;;;;9.73;5.70;;;;;;;27.56;41.22;99840.63;5087931;27;20418;-49
2022/06/07 09:36:59;;;;;;;9.07;4.65;;;;;;;27.67;39.99;99835.34;5040158;28;20045;-49
2022/06/07 09:39:32;;;;;;;7.97;4.82;;;;;;;27.66;40.64;99836.28;5065645;28;20050;-46
2022/06/07 09:42:21;;;;;;;7.47;4.53;;;;;;;27.53;39.40;99832.88;5095976;28;20495;-45
2022/06/07 09:55:36;;;;;;;9.00;5.80;;;;;;;28.14;40.98;99802.41;5036182;27;20395;-44
2022/06/07 10:14:27;;;;;;;6.22;3.08;;;;;;;29.79;39.50;99806.53;5007933;28;20623;-44
2022/06/07 10:25:10;;;;;;;7.03;4.18;;;;;;;30.17;37.71;99814.78;5039624;28;20403;-51
2022/06/07 10:30:24;;;;;;;5.10;2.88;;;;;;;30.46;37.07;99803.28;5072491;27;20394;-43
2022/06/07 10:35:56;;;;;;;3.33;2.75;;;;;;;30.39;36.16;99796.81;5041611;28;20396;-47
2022/06/07 10:49:40;;;;;;;5.72;4.07;;;;;;;30.42;34.90;99790.38;5099091;27;20399;-47
2022/06/07 11:00:35;;;;;;;5.32;3.92;;;;;;;29.04;37.36;99780.03;5043484;28;20887;-42
2022/06/07 11:03:13;;;;;;;6.32;3.47;;;;;;;29.12;37.32;99777.56;4970860;28;20039;-42
2022/06/07 11:11:27;;;;;;;5.32;3.03;;;;;;;29.71;36.67;99777.84;4973714;28;20110;-41
2022/06/07 11:19:14;;;;;;;6.70;5.50;;;;;;;30.10;37.30;99778.91;5079486;27;20402;-45
2022/06/07 11:21:47;;;;;;;7.75;4.90;;;;;;;30.34;37.75;99777.69;5079988;28;20044;-42
2022/06/07 11:32:45;;;;;;;6.07;3.50;;;;;;;30.75;35.90;99785.59;5049200;27;20409;-44
2022/06/07 15:30:28;;;;;;;4.60;2.53;;;;;;;27.59;38.58;99582.38;5066941;27;20388;-48
2022/06/07 15:32:57;;;;;;;3.45;2.47;;;;;;;27.55;38.43;99586.25;5005382;28;20045;-48
2022/06/07 15:35:28;;;;;;;2.97;1.67;;;;;;;27.55;38.95;99580.94;5004906;28;20383;-50
2022/06/07 15:37:55;;;;;;;5.28;3.13;;;;;;;27.56;38.03;99577.34;5000514;28;20046;-41
2022/06/07 15:40:24;;;;;;;3.70;2.50;;;;;;;27.58;39.50;99580.69;5005786;28;20046;-42
2022/06/07 15:42:53;;;;;;;2.97;2.67;;;;;;;27.55;39.01;99570.31;5005479;28;20045;-43
2022/06/07 15:55:48;;;;;;;2.17;1.58;;;;;;;27.16;38.79;99571.63;5048563;27;20774;-45
2022/06/07 16:01:03;;;;;;;2.47;2.13;;;;;;;26.97;39.08;99572.25;5023928;28;20485;-51
2022/06/07 16:03:31;;;;;;;8.88;1.90;;;;;;;26.92;40.31;99564.59;5022372;28;20482;-46
2022/06/07 16:05:58;;;;;;;3.95;1.98;;;;;;;26.82;40.02;99563.66;5042729;28;20057;-46
2022/06/07 16:08:25;;;;;;;3.13;1.75;;;;;;;26.72;40.66;99562.69;5049007;28;20054;-46
2022/06/07 16:10:52;;;;;;;2.70;1.60;;;;;;;26.60;39.98;99552.06;5046774;28;20448;-47
2022/06/07 16:13:20;;;;;;;2.25;1.55;;;;;;;26.44;40.29;99555.91;5048020;28;20045;-43
2022/06/07 16:15:49;;;;;;;3.00;1.45;;;;;;;26.33;40.06;99557.72;5047325;28;20061;-52
2022/06/07 16:18:18;;;;;;;4.00;1.45;;;;;;;26.30;40.03;99557.00;5046928;28;20485;-52
2022/06/07 16:20:45;;;;;;;2.80;1.90;;;;;;;26.26;40.26;99557.31;5043747;28;20056;-47
2022/06/07 16:23:12;;;;;;;5.00;1.80;;;;;;;26.22;40.39;99561.16;5026237;28;20092;-49
2022/06/07 16:25:39;;;;;;;2.72;1.70;;;;;;;26.25;39.97;99550.31;5019369;28;20176;-48
2022/06/07 16:33:42;;;;;;;2.20;1.63;;;;;;;26.34;39.68;99539.00;5009809;28;20045;-48
2022/06/07 16:36:11;;;;;;;;;;;;;;;26.07;40.72;99532.19;5065392;28;20055;-47
2022/06/07 16:38:41;;;;;;;2.42;1.98;;;;;;;26.29;39.70;99535.88;5028888;28;20289;-45
2022/06/07 16:41:09;;;;;;;2.47;1.80;;;;;;;26.37;40.01;99525.50;5024717;28;20053;-48
2022/06/07 16:46:23;;;;;;;2.78;1.52;;;;;;;26.27;39.90;99521.88;5009813;28;20042;-51
2022/06/07 16:48:53;;;;;;;2.13;1.25;;;;;;;26.11;39.71;99523.00;5039584;28;20110;-45
2022/06/07 16:51:23;;;;;;;2.40;1.77;;;;;;;25.98;40.05;99507.22;5020104;28;20141;-51
2022/06/07 16:53:56;;;;;;;2.47;1.65;;;;;;;25.85;40.50;99512.59;5026917;28;20132;-48
2022/06/07 16:56:25;;;;;;;5.97;1.40;;;;;;;25.80;40.46;99515.59;5026672;28;20544;-43
2022/06/07 16:58:54;;;;;;;3.65;1.58;;;;;;;25.83;40.88;99509.22;5025737;28;20055;-47
2022/06/07 17:01:21;;;;;;;3.13;1.45;;;;;;;25.88;41.09;99511.53;5021346;28;20064;-44
2022/06/07 17:03:48;;;;;;;2.47;1.42;;;;;;;25.93;40.52;99510.22;5025076;28;20662;-46
2022/06/07 17:06:20;;;;;;;2.38;1.27;;;;;;;25.99;41.88;99508.03;5015776;28;20053;-50
2022/06/07 17:08:49;;;;;;;2.70;1.90;;;;;;;26.04;41.31;99497.94;5007252;28;20132;-51
2022/06/07 17:11:16;;;;;;;2.45;1.60;;;;;;;26.12;41.65;99500.00;5008336;28;20045;-43
2022/06/07 17:13:43;;;;;;;3.67;2.28;;;;;;;26.16;40.85;99504.94;5038781;28;20052;-43
2022/06/07 17:16:10;;;;;;;3.90;1.60;;;;;;;26.08;41.34;99494.09;5012042;28;20501;-48
2022/06/07 17:18:37;;;;;;;3.90;1.80;;;;;;;25.97;41.52;99499.38;5008114;28;20053;-51
2022/06/07 17:21:05;;;;;;;2.85;1.85;;;;;;;25.89;42.56;99498.16;5003970;28;20068;-46
2022/06/07 17:23:38;;;;;;;3.10;1.73;;;;;;;25.89;41.87;99487.53;5018360;28;20357;-43
2022/06/07 17:26:08;;;;;;;6.05;1.77;;;;;;;25.78;41.89;99485.72;5007954;28;20049;-50
2022/06/07 17:28:36;;;;;;;4.38;1.90;;;;;;;25.66;41.86;99498.09;5003254;28;20061;-41
2022/06/07 17:31:04;;;;;;;2.90;1.95;;;;;;;25.58;41.58;99486.34;5009163;28;20076;-51
2022/06/07 17:33:33;;;;;;;2.75;1.77;;;;;;;25.49;41.99;99479.91;5001151;28;20172;-45
2022/06/07 17:36:01;;;;;;;2.70;1.92;;;;;;;25.37;42.74;99476.38;5001614;28;20053;-44
2022/06/07 17:38:28;;;;;;;2.78;1.60;;;;;;;25.12;43.18;99479.03;4996372;28;20054;-46
2022/06/07 17:40:55;;;;;;;2.47;2.00;;;;;;;24.95;43.14;99476.78;5003175;28;20856;-44
2022/06/07 17:43:21;;;;;;;11.85;2.75;;;;;;;24.86;43.81;99472.97;5006856;28;20050;-47